PN56 weather

Miller Airport
Mahaffey, Pennsylvania, United States

Public forecast

Using degrees Fahrenheit for public forecast. Weather courtesy of forecast.io.

METAR (pilot weather report)

Closest report is Clearfield Lawrence Airport, 17.7 nm (32.9 km) ENE. Retrieved 2019/07/19 07:37 UTC (2 minutes ago):

KFIG 190737Z AUTO 20004KT 6SM BR SCT001 20/20 A2998 RMK AO2 T02000200

TAF (pilot weather forecast)

Closest forecast is DuBois Regional Airport, 19.0 nm (35.2 km) NNW. Retrieved 2019/07/19 06:22 UTC (1 hour ago):

TAF KDUJ 190520Z 1906/2006 VRB02KT P6SM SKC TEMPO 1908/1912 1SM BR SCT005 FM191200 22008KT P6SM SCT015 FM191800 23012G18KT P6SM BKN040 FM200300 22006KT P6SM BKN030